createdAt,value
2023-01-18T00:00:18.122Z,61.27
2023-01-18T00:05:20.231Z,61.32
2023-01-18T00:10:23.663Z,61.46
2023-01-18T00:15:25.404Z,61.47
2023-01-18T00:20:29.282Z,61.54
2023-01-18T00:25:31.146Z,61.67
2023-01-18T00:30:32.982Z,61.67
2023-01-18T00:35:34.817Z,61.72
2023-01-18T00:40:36.592Z,61.97
2023-01-18T00:45:38.537Z,61.92
2023-01-18T00:50:40.368Z,62.03
2023-01-18T00:55:42.229Z,62.32
2023-01-18T01:00:44.230Z,62.11
2023-01-18T01:06:05.077Z,62.03
2023-01-18T01:11:12.556Z,62.06
2023-01-18T01:16:32.801Z,62.20
2023-01-18T01:21:53.243Z,62.05
2023-01-18T01:26:55.205Z,62.14
2023-01-18T01:31:57.033Z,62.14
2023-01-18T01:36:59.026Z,62.11
2023-01-18T01:42:02.072Z,62.25
2023-01-18T01:47:13.906Z,62.37
2023-01-18T01:52:25.423Z,62.37
2023-01-18T01:57:31.965Z,62.41
2023-01-18T02:02:36.612Z,62.49
2023-01-18T02:07:38.969Z,62.38
2023-01-18T02:12:44.758Z,62.46
2023-01-18T02:18:05.078Z,62.40
2023-01-18T02:23:25.317Z,62.44
2023-01-18T02:28:33.682Z,62.45
2023-01-18T02:33:58.339Z,62.70
2023-01-18T02:39:32.020Z,62.51
2023-01-18T02:44:59.174Z,62.59
2023-01-18T02:50:02.512Z,62.52
2023-01-18T02:55:06.527Z,62.56
2023-01-18T03:00:11.379Z,62.62
2023-01-18T03:05:13.796Z,62.60
2023-01-18T03:10:17.024Z,62.60
2023-01-18T03:15:29.107Z,62.69
2023-01-18T03:20:35.350Z,62.69
2023-01-18T03:25:59.321Z,62.81
2023-01-18T03:31:24.579Z,62.98
2023-01-18T03:36:43.810Z,62.81
2023-01-18T03:41:51.719Z,62.88
2023-01-18T03:46:53.465Z,63.22
2023-01-18T03:51:58.169Z,63.00
2023-01-18T03:57:10.243Z,63.02
2023-01-18T04:02:12.219Z,63.30
2023-01-18T04:07:14.289Z,63.67
2023-01-18T04:12:16.098Z,63.76
2023-01-18T04:17:18.413Z,63.91
2023-01-18T04:22:20.155Z,64.10
2023-01-18T04:27:24.288Z,63.85
2023-01-18T04:32:26.338Z,64.33
2023-01-18T04:37:34.299Z,64.60
2023-01-18T04:42:35.983Z,64.65
2023-01-18T04:47:37.687Z,64.43
2023-01-18T04:52:39.505Z,64.65
2023-01-18T04:57:42.967Z,64.52
2023-01-18T05:02:44.967Z,64.63
2023-01-18T05:07:46.848Z,65.27
2023-01-18T05:12:48.852Z,64.97
2023-01-18T05:17:50.683Z,65.11
2023-01-18T05:22:52.530Z,65.17
2023-01-18T05:27:54.383Z,65.34
2023-01-18T05:32:56.609Z,65.46
2023-01-18T05:37:58.756Z,65.37
2023-01-18T05:43:00.909Z,65.09
2023-01-18T05:48:04.130Z,65.54
2023-01-18T05:53:06.859Z,65.71
2023-01-18T05:58:09.119Z,65.83
2023-01-18T06:03:11.958Z,65.80
2023-01-18T06:08:14.264Z,66.06
2023-01-18T06:13:16.075Z,66.21
2023-01-18T06:18:17.980Z,66.23
2023-01-18T06:23:19.876Z,66.41
2023-01-18T06:28:22.757Z,66.77
2023-01-18T06:33:25.148Z,66.68
2023-01-18T06:38:27.313Z,66.56
2023-01-18T06:43:29.467Z,66.73
2023-01-18T06:48:31.337Z,66.65
2023-01-18T06:53:33.213Z,66.75
2023-01-18T06:58:34.970Z,66.77
2023-01-18T07:03:39.057Z,66.85
2023-01-18T07:08:42.226Z,66.80
2023-01-18T07:13:44.210Z,66.99
2023-01-18T07:18:47.738Z,67.00
2023-01-18T07:23:49.580Z,67.10
2023-01-18T07:28:52.069Z,67.24
2023-01-18T07:33:53.862Z,67.41
2023-01-18T07:38:55.791Z,67.44
2023-01-18T07:43:57.539Z,67.68
2023-01-18T07:48:59.457Z,67.85
2023-01-18T07:54:01.267Z,67.82
2023-01-18T07:59:03.063Z,68.06
2023-01-18T08:04:06.085Z,68.05
2023-01-18T08:09:08.089Z,68.09
2023-01-18T08:14:09.922Z,68.24
2023-01-18T08:19:11.775Z,68.33
2023-01-18T08:24:14.140Z,68.27
2023-01-18T08:29:15.894Z,68.49
2023-01-18T08:34:17.795Z,68.73
2023-01-18T08:39:19.594Z,68.66
2023-01-18T08:44:21.852Z,68.90
2023-01-18T08:49:23.636Z,68.84
2023-01-18T08:54:26.162Z,68.94
2023-01-18T08:59:28.395Z,69.14
2023-01-18T09:04:30.348Z,69.15
2023-01-18T09:09:32.280Z,69.27
2023-01-18T09:14:34.137Z,69.24
2023-01-18T09:19:36.034Z,69.38
2023-01-18T09:24:38.383Z,69.29
2023-01-18T09:29:40.477Z,69.34
2023-01-18T09:34:42.597Z,69.52
2023-01-18T09:39:51.951Z,69.52
2023-01-18T09:44:58.849Z,69.41
2023-01-18T09:50:11.014Z,69.41
2023-01-18T09:55:22.952Z,69.44
2023-01-18T10:00:28.810Z,69.71
2023-01-18T10:05:34.804Z,69.84
2023-01-18T10:10:39.849Z,69.87
2023-01-18T10:15:42.575Z,69.93
2023-01-18T10:20:44.348Z,69.86
2023-01-18T10:25:53.389Z,69.83
2023-01-18T10:30:58.171Z,69.92
2023-01-18T10:36:22.363Z,69.88
2023-01-18T10:41:31.726Z,69.87
2023-01-18T10:46:33.533Z,69.99
2023-01-18T10:51:37.669Z,69.97
2023-01-18T10:56:40.318Z,69.94
2023-01-18T11:01:54.490Z,70.09
2023-01-18T11:06:59.867Z,70.16
2023-01-18T11:12:42.777Z,70.14
2023-01-18T11:18:00.436Z,69.86
2023-01-18T11:23:16.360Z,69.73
2023-01-18T11:28:26.613Z,69.98
2023-01-18T11:33:30.970Z,70.14
2023-01-18T11:38:34.826Z,70.22
2023-01-18T11:43:39.496Z,70.29
2023-01-18T11:48:52.663Z,70.51
2023-01-18T11:54:05.825Z,70.42
2023-01-18T11:59:47.031Z,70.54
2023-01-18T12:04:51.569Z,70.27
2023-01-18T12:09:58.046Z,70.45
2023-01-18T12:15:14.690Z,70.13
2023-01-18T12:20:53.851Z,70.38
2023-01-18T12:26:12.310Z,70.39
2023-01-18T12:31:40.045Z,70.33
2023-01-18T12:36:47.449Z,70.47
2023-01-18T12:42:07.710Z,70.58
2023-01-18T12:47:35.031Z,70.75
2023-01-18T12:52:45.545Z,70.73
2023-01-18T12:57:51.162Z,71.04
2023-01-18T13:02:57.523Z,70.99
2023-01-18T13:08:06.461Z,70.93
2023-01-18T13:13:17.616Z,70.92
2023-01-18T13:18:33.433Z,71.02
2023-01-18T13:23:56.405Z,70.98
2023-01-18T13:29:10.453Z,71.13
2023-01-18T13:34:48.079Z,71.14
2023-01-18T13:39:52.555Z,70.91
2023-01-18T13:45:25.043Z,71.06
2023-01-18T13:50:36.392Z,71.09
2023-01-18T13:55:53.405Z,71.13
2023-01-18T14:01:06.098Z,71.29
2023-01-18T14:06:15.910Z,71.28
2023-01-18T14:11:27.399Z,71.19
2023-01-18T14:16:35.170Z,71.18
2023-01-18T14:22:16.561Z,71.40
2023-01-18T14:27:25.795Z,71.39
2023-01-18T14:32:35.808Z,71.46
2023-01-18T14:37:37.901Z,71.54
2023-01-18T14:42:50.354Z,71.73
2023-01-18T14:47:52.730Z,71.54
2023-01-18T14:52:54.717Z,71.64
2023-01-18T14:58:23.146Z,71.57
2023-01-18T15:03:29.796Z,71.55
2023-01-18T15:08:34.665Z,71.79
2023-01-18T15:13:49.231Z,71.70
2023-01-18T15:18:54.386Z,72.04
2023-01-18T15:24:09.184Z,72.04
2023-01-18T15:29:16.621Z,71.97
2023-01-18T15:34:25.364Z,72.22
2023-01-18T15:39:27.686Z,72.84
2023-01-18T15:44:50.018Z,72.97
2023-01-18T15:49:54.435Z,72.98
2023-01-18T15:54:56.940Z,73.05
2023-01-18T16:00:01.830Z,73.13
2023-01-18T16:05:21.317Z,73.27
2023-01-18T16:10:30.563Z,73.21
2023-01-18T16:15:32.586Z,73.16
2023-01-18T16:20:35.927Z,72.96
2023-01-18T16:25:37.999Z,72.90
2023-01-18T16:30:40.351Z,72.76
2023-01-18T16:35:42.306Z,72.87
2023-01-18T16:40:46.954Z,72.84
2023-01-18T16:45:51.463Z,72.74
2023-01-18T16:50:54.230Z,72.82
2023-01-18T16:55:56.777Z,73.01
2023-01-18T17:01:07.619Z,72.95
2023-01-18T17:06:16.760Z,72.88
2023-01-18T17:11:18.579Z,72.77
2023-01-18T17:16:20.771Z,72.79
2023-01-18T17:21:22.922Z,72.71
2023-01-18T17:26:24.761Z,72.68
2023-01-18T17:31:28.499Z,72.78
2023-01-18T17:36:30.308Z,72.75
2023-01-18T17:41:33.815Z,72.92
2023-01-18T17:46:36.656Z,73.09
2023-01-18T17:51:38.654Z,73.15
2023-01-18T17:56:40.473Z,73.31
2023-01-18T18:01:42.536Z,73.24
2023-01-18T18:06:53.746Z,73.01
2023-01-18T18:11:56.315Z,73.13
2023-01-18T18:16:58.291Z,73.11
2023-01-18T18:22:01.501Z,73.25
2023-01-18T18:27:03.275Z,73.26
2023-01-18T18:32:07.037Z,73.37
2023-01-18T18:37:08.958Z,73.44
2023-01-18T18:42:10.750Z,73.36
2023-01-18T18:47:13.483Z,73.38
2023-01-18T18:52:15.312Z,73.53
2023-01-18T18:57:17.168Z,73.62
2023-01-18T19:02:19.473Z,73.67
2023-01-18T19:07:21.547Z,73.83
2023-01-18T19:12:23.456Z,73.83
2023-01-18T19:17:30.637Z,74.02
2023-01-18T19:22:33.048Z,73.48
2023-01-18T19:27:34.868Z,73.72
2023-01-18T19:32:36.944Z,73.75
2023-01-18T19:37:38.800Z,73.83
2023-01-18T19:42:40.921Z,74.09
2023-01-18T19:47:42.906Z,73.96
2023-01-18T19:52:46.289Z,73.76
2023-01-18T19:57:49.031Z,73.64
2023-01-18T20:02:50.921Z,73.56
2023-01-18T20:07:53.172Z,73.38
2023-01-18T20:12:56.095Z,73.14
2023-01-18T20:17:57.928Z,73.32
2023-01-18T20:23:04.375Z,73.30
2023-01-18T20:28:06.336Z,73.17
2023-01-18T20:33:08.180Z,73.13
2023-01-18T20:38:10.653Z,73.05
2023-01-18T20:43:12.421Z,73.00
2023-01-18T20:48:14.391Z,73.13
2023-01-18T20:53:16.462Z,72.89
2023-01-18T20:58:18.193Z,72.85
2023-01-18T21:03:20.570Z,72.94
2023-01-18T21:08:22.608Z,72.80
2023-01-18T21:13:24.871Z,72.76
2023-01-18T21:18:27.299Z,72.77
2023-01-18T21:23:29.807Z,72.71
2023-01-18T21:28:31.567Z,72.86
2023-01-18T21:33:33.884Z,72.56
2023-01-18T21:38:36.199Z,72.57
2023-01-18T21:43:56.816Z,72.42
2023-01-18T21:49:06.823Z,72.57
2023-01-18T21:54:16.664Z,72.31
2023-01-18T21:59:18.547Z,72.46
2023-01-18T22:04:39.065Z,72.36
2023-01-18T22:09:42.721Z,72.20
2023-01-18T22:14:45.807Z,72.06
2023-01-18T22:19:48.253Z,71.94
2023-01-18T22:24:50.102Z,71.86
2023-01-18T22:29:51.864Z,71.93
2023-01-18T22:34:53.739Z,71.93
2023-01-18T22:39:55.568Z,71.73
2023-01-18T22:44:57.497Z,71.62
2023-01-18T22:49:59.245Z,71.70
2023-01-18T22:55:01.098Z,71.69
2023-01-18T23:00:04.702Z,71.53
2023-01-18T23:05:07.143Z,71.34
2023-01-18T23:10:09.740Z,71.25
2023-01-18T23:15:31.421Z,70.97
2023-01-18T23:20:33.389Z,71.18
2023-01-18T23:25:35.347Z,71.08
2023-01-18T23:30:37.156Z,70.99
2023-01-18T23:35:38.967Z,70.59
2023-01-18T23:40:59.451Z,70.72
2023-01-18T23:46:19.734Z,70.71
2023-01-18T23:51:40.137Z,70.37
2023-01-18T23:56:43.009Z,70.13
